Time;durP1;ratioP1;P1;durP2;ratioP2;P2;SDS_P1;SDS_P2;PMS_P1;PMS_P2;Temp;Humidity;BMP_temperature;BMP_pressure;BME280_temperature;BME280_humidity;BME280_pressure;Samples;Min_cycle;Max_cycle;Signal;HPM_P1;HPM_P2
2022/10/12 00:02:12;;;;;;;11.88;8.07;;;9.60;99.90;;;;;;5007944;28;20036;-54
2022/10/12 00:04:58;;;;;;;13.35;8.50;;;9.70;99.90;;;;;;5030167;28;20037;-57
2022/10/12 00:07:43;;;;;;;14.30;8.65;;;9.70;99.90;;;;;;5024879;28;20057;-58
2022/10/12 00:10:29;;;;;;;11.57;7.78;;;9.70;99.90;;;;;;4997291;28;20026;-57
2022/10/12 00:13:15;;;;;;;13.27;8.00;;;9.70;99.90;;;;;;5018654;28;20030;-57
2022/10/12 00:16:06;;;;;;;13.52;8.13;;;9.70;99.90;;;;;;5028922;28;20087;-58
2022/10/12 00:18:53;;;;;;;13.25;8.85;;;9.70;99.90;;;;;;5003580;28;20030;-58
2022/10/12 00:21:39;;;;;;;12.52;8.07;;;9.60;99.90;;;;;;5009714;28;20478;-56
2022/10/12 00:24:25;;;;;;;13.85;8.05;;;9.60;99.90;;;;;;5000050;28;20569;-57
2022/10/12 00:27:11;;;;;;;13.27;8.13;;;9.60;99.90;;;;;;5010038;28;20048;-57
2022/10/12 00:29:57;;;;;;;12.32;7.18;;;9.50;99.90;;;;;;5010579;28;20029;-57
2022/10/12 00:32:43;;;;;;;15.15;7.30;;;9.40;99.90;;;;;;5025315;28;20112;-56
2022/10/12 00:35:29;;;;;;;15.75;7.45;;;9.30;99.90;;;;;;5018638;28;20030;-56
2022/10/12 00:38:15;;;;;;;10.57;6.90;;;9.20;99.90;;;;;;5011616;28;20054;-55
2022/10/12 00:41:01;;;;;;;15.70;7.82;;;9.10;99.90;;;;;;5011388;28;20026;-57
2022/10/12 00:43:47;;;;;;;18.73;7.47;;;9.00;99.90;;;;;;5015362;28;20026;-56
2022/10/12 00:46:40;;;;;;;14.35;6.78;;;8.90;99.90;;;;;;5009288;28;20115;-57
2022/10/12 00:49:26;;;;;;;15.77;8.30;;;8.90;99.90;;;;;;5011787;28;20030;-58
2022/10/12 00:52:16;;;;;;;14.82;7.45;;;8.90;99.90;;;;;;5008536;28;20173;-58
2022/10/12 00:55:04;;;;;;;12.90;7.35;;;8.90;99.90;;;;;;5014877;28;20036;-58
2022/10/12 00:57:52;;;;;;;13.63;7.22;;;8.80;99.90;;;;;;5029965;28;20061;-55
2022/10/12 01:00:39;;;;;;;12.93;7.30;;;8.70;99.90;;;;;;5015181;28;20041;-56
2022/10/12 01:03:25;;;;;;;11.85;7.75;;;8.70;99.90;;;;;;5013493;28;20398;-55
2022/10/12 01:06:11;;;;;;;12.70;6.90;;;8.80;99.90;;;;;;4999983;28;20109;-55
2022/10/12 01:08:57;;;;;;;11.57;7.15;;;8.70;99.90;;;;;;5014578;28;20525;-52
2022/10/12 01:11:43;;;;;;;15.95;7.63;;;8.60;99.90;;;;;;5016133;28;20482;-56
2022/10/12 01:14:29;;;;;;;13.57;7.13;;;8.60;99.90;;;;;;5034527;28;20030;-54
2022/10/12 01:18:00;;;;;;;15.45;8.68;;;8.70;99.90;;;;;;5029474;28;20453;-52
2022/10/12 01:21:04;;;;;;;15.32;7.40;;;8.70;99.90;;;;;;5014495;28;20041;-55
2022/10/12 01:24:08;;;;;;;18.27;7.20;;;8.80;99.90;;;;;;5018188;28;20402;-55
2022/10/12 01:27:22;;;;;;;17.98;7.20;;;8.80;99.90;;;;;;5032520;28;20034;-56
2022/10/12 01:30:19;;;;;;;11.43;6.95;;;8.80;99.90;;;;;;5023760;28;20037;-55
2022/10/12 01:33:12;;;;;;;13.98;7.30;;;8.90;99.90;;;;;;4994422;28;20530;-54
2022/10/12 01:36:06;;;;;;;15.40;6.68;;;8.90;99.90;;;;;;5000440;28;20408;-56
2022/10/12 01:39:11;;;;;;;13.90;6.85;;;8.90;99.90;;;;;;5033095;28;20064;-54
2022/10/12 01:42:02;;;;;;;14.10;7.20;;;8.90;99.90;;;;;;5023156;28;20037;-56
2022/10/12 01:44:47;;;;;;;11.43;7.20;;;8.90;99.90;;;;;;5014048;28;20030;-57
2022/10/12 01:47:35;;;;;;;14.85;6.97;;;8.80;99.90;;;;;;5027835;28;20029;-55
2022/10/12 01:50:32;;;;;;;12.73;6.90;;;8.70;99.90;;;;;;5027390;28;20081;-55
2022/10/12 01:53:32;;;;;;;10.50;6.70;;;8.70;99.90;;;;;;5014115;28;20040;-54
2022/10/12 01:56:24;;;;;;;12.48;7.05;;;8.70;99.90;;;;;;5026912;28;20029;-56
2022/10/12 01:59:36;;;;;;;10.82;6.38;;;8.70;99.90;;;;;;5033436;28;20072;-54
2022/10/12 02:02:50;;;;;;;13.65;6.40;;;8.60;99.90;;;;;;4993566;28;20034;-54
2022/10/12 02:05:49;;;;;;;15.85;7.03;;;8.70;99.90;;;;;;5005769;28;20033;-55
2022/10/12 02:09:02;;;;;;;12.95;6.65;;;8.70;99.90;;;;;;5032191;28;20157;-58
2022/10/12 02:11:51;;;;;;;15.43;7.88;;;8.60;99.90;;;;;;5030482;28;20109;-54
2022/10/12 02:14:49;;;;;;;14.63;7.68;;;8.50;99.90;;;;;;5032708;28;20484;-55
2022/10/12 02:17:38;;;;;;;23.17;12.05;;;8.50;99.90;;;;;;5034110;28;20041;-56
2022/10/12 02:20:26;;;;;;;25.13;13.73;;;8.40;99.90;;;;;;5028673;28;20021;-56
2022/10/12 02:23:13;;;;;;;17.33;10.35;;;8.20;99.90;;;;;;5011831;28;20034;-56
2022/10/12 02:26:01;;;;;;;12.57;7.75;;;8.20;99.90;;;;;;5019767;28;20043;-56
2022/10/12 02:28:49;;;;;;;15.07;7.60;;;8.10;99.90;;;;;;5032139;28;20056;-52
2022/10/12 02:31:50;;;;;;;7.80;5.97;;;8.10;99.90;;;;;;5005213;28;20040;-54
2022/10/12 02:35:01;;;;;;;15.20;7.45;;;8.00;99.90;;;;;;5013064;28;20030;-57
2022/10/12 02:37:56;;;;;;;12.65;7.07;;;8.00;99.90;;;;;;4993228;28;20030;-55
2022/10/12 02:40:49;;;;;;;9.85;6.53;;;8.10;99.90;;;;;;5002442;28;20489;-57
2022/10/12 02:43:44;;;;;;;12.68;7.20;;;8.10;99.90;;;;;;5029895;28;20037;-58
2022/10/12 02:46:31;;;;;;;13.87;7.30;;;8.20;99.90;;;;;;5012108;28;20022;-55
2022/10/12 02:49:18;;;;;;;68.75;38.70;;;8.20;99.90;;;;;;5015768;28;20261;-54
2022/10/12 02:52:05;;;;;;;129.90;66.80;;;8.20;99.90;;;;;;5017658;28;20512;-52
2022/10/12 02:54:51;;;;;;;90.25;47.80;;;8.30;99.90;;;;;;5012698;28;20041;-58
2022/10/12 02:57:38;;;;;;;42.42;23.25;;;8.30;99.90;;;;;;5011741;28;20026;-57
2022/10/12 03:00:24;;;;;;;20.52;12.10;;;8.30;99.90;;;;;;5025898;28;20033;-56
2022/10/12 03:03:10;;;;;;;16.45;8.43;;;8.30;99.90;;;;;;5031352;28;20614;-59
2022/10/12 03:05:56;;;;;;;14.77;7.75;;;8.40;99.90;;;;;;5013122;28;20041;-58
2022/10/12 03:08:42;;;;;;;12.05;6.70;;;8.30;99.90;;;;;;5011920;28;20105;-56
2022/10/12 03:11:28;;;;;;;15.05;7.05;;;8.20;99.90;;;;;;4993597;28;20106;-55
2022/10/12 03:14:16;;;;;;;14.43;7.78;;;8.20;99.90;;;;;;4996829;28;20037;-52
2022/10/12 03:17:03;;;;;;;12.15;7.47;;;8.10;99.90;;;;;;5011499;28;20505;-57
2022/10/12 03:19:48;;;;;;;12.95;6.65;;;8.10;99.90;;;;;;5019176;28;20091;-52
2022/10/12 03:22:34;;;;;;;15.98;7.03;;;8.10;99.90;;;;;;5029858;28;20022;-53
2022/10/12 03:25:21;;;;;;;14.40;7.68;;;8.00;99.90;;;;;;5020682;28;20034;-48
2022/10/12 03:28:06;;;;;;;11.65;6.43;;;7.90;99.90;;;;;;5011463;28;20026;-52
2022/10/12 03:30:52;;;;;;;15.80;7.40;;;7.80;99.90;;;;;;5012150;28;20026;-47
2022/10/12 03:33:38;;;;;;;10.90;6.70;;;7.60;99.90;;;;;;5015469;28;20063;-47
2022/10/12 03:36:24;;;;;;;16.10;6.90;;;7.30;99.90;;;;;;5016969;28;20486;-52
2022/10/12 03:39:10;;;;;;;13.43;7.88;;;7.30;99.90;;;;;;5029123;28;20383;-51
2022/10/12 03:41:56;;;;;;;10.35;7.03;;;7.20;99.90;;;;;;5021309;28;20030;-48
2022/10/12 03:44:42;;;;;;;12.85;7.35;;;7.20;99.90;;;;;;5012228;28;20123;-51
2022/10/12 03:47:28;;;;;;;12.63;6.50;;;7.20;99.90;;;;;;5010250;28;20036;-48
2022/10/12 03:50:14;;;;;;;12.15;7.18;;;7.20;99.90;;;;;;5016693;28;20065;-48
2022/10/12 03:53:01;;;;;;;10.77;6.80;;;7.30;99.90;;;;;;5012089;28;20029;-56
2022/10/12 03:55:48;;;;;;;15.40;7.03;;;7.30;99.90;;;;;;5014536;28;20022;-52
2022/10/12 03:58:34;;;;;;;12.25;6.68;;;7.30;99.90;;;;;;5014237;28;20054;-49
2022/10/12 04:01:20;;;;;;;12.20;6.72;;;7.20;99.90;;;;;;4995191;28;20042;-50
2022/10/12 04:04:06;;;;;;;11.90;6.45;;;7.20;99.90;;;;;;4997403;28;20034;-49
2022/10/12 04:06:52;;;;;;;11.68;6.75;;;7.20;99.90;;;;;;5029062;28;20104;-55
2022/10/12 04:09:38;;;;;;;12.25;6.70;;;7.20;99.90;;;;;;4992765;28;20097;-55
2022/10/12 04:12:24;;;;;;;11.45;6.45;;;7.20;99.90;;;;;;4999395;28;20022;-52
2022/10/12 04:15:10;;;;;;;34.28;19.90;;;7.30;99.90;;;;;;5030998;28;20093;-54
2022/10/12 04:17:56;;;;;;;34.95;18.75;;;7.30;99.90;;;;;;5022463;28;20156;-56
2022/10/12 04:20:42;;;;;;;18.23;10.45;;;7.30;99.90;;;;;;5010205;28;20489;-53
2022/10/12 04:23:28;;;;;;;19.08;8.57;;;7.40;99.90;;;;;;5022077;28;20037;-54
2022/10/12 04:26:14;;;;;;;25.08;8.35;;;7.40;99.90;;;;;;5029735;28;20055;-53
2022/10/12 04:29:00;;;;;;;10.00;6.00;;;7.50;99.90;;;;;;5014165;28;20034;-55
2022/10/12 04:31:46;;;;;;;12.23;6.50;;;7.50;99.90;;;;;;5017425;28;20021;-52
2022/10/12 04:34:32;;;;;;;10.77;6.10;;;7.50;99.90;;;;;;5031053;28;20025;-55
2022/10/12 04:37:18;;;;;;;18.73;8.05;;;7.50;99.90;;;;;;5024262;28;20033;-55
2022/10/12 04:40:04;;;;;;;18.58;7.32;;;7.60;99.90;;;;;;5026735;28;20064;-55
2022/10/12 04:42:50;;;;;;;24.67;7.50;;;7.50;99.90;;;;;;5034560;28;20025;-53
2022/10/12 04:45:36;;;;;;;14.30;6.72;;;7.40;99.90;;;;;;5017179;28;20506;-54
2022/10/12 04:48:22;;;;;;;15.48;6.80;;;7.40;99.90;;;;;;5022099;28;20040;-49
2022/10/12 04:51:09;;;;;;;15.60;5.93;;;7.40;99.90;;;;;;5009847;28;20041;-51
2022/10/12 04:53:55;;;;;;;92.97;14.55;;;7.20;99.90;;;;;;5011487;28;20033;-52
2022/10/12 04:56:41;;;;;;;24.02;8.45;;;7.20;99.90;;;;;;4991909;28;20070;-57
2022/10/12 04:59:27;;;;;;;15.77;7.32;;;7.20;99.90;;;;;;5013007;28;20033;-53
2022/10/12 05:02:13;;;;;;;12.43;6.78;;;7.30;99.90;;;;;;4996626;28;20128;-51
2022/10/12 05:04:59;;;;;;;14.82;6.82;;;7.20;99.90;;;;;;5004298;28;20118;-57
2022/10/12 05:07:44;;;;;;;15.50;7.18;;;7.30;99.90;;;;;;5005631;28;20026;-52
2022/10/12 05:10:32;;;;;;;16.05;7.32;;;7.30;99.90;;;;;;5016641;28;20074;-55
2022/10/12 05:13:18;;;;;;;10.70;5.78;;;7.30;99.90;;;;;;5026454;28;20520;-53
2022/10/12 05:16:04;;;;;;;17.30;7.50;;;7.20;99.90;;;;;;5014185;28;20026;-56
2022/10/12 05:18:50;;;;;;;11.98;6.18;;;7.10;99.90;;;;;;5015078;28;20037;-53
2022/10/12 05:21:38;;;;;;;13.93;7.00;;;7.20;99.90;;;;;;5017715;28;20030;-55
2022/10/12 05:24:24;;;;;;;13.07;6.95;;;7.20;99.90;;;;;;5029993;28;20040;-55
2022/10/12 05:27:10;;;;;;;10.45;6.53;;;7.20;99.90;;;;;;5020949;28;20121;-53
2022/10/12 05:29:56;;;;;;;12.30;5.82;;;7.20;99.90;;;;;;5028447;28;20038;-51
2022/10/12 05:32:43;;;;;;;14.15;6.95;;;7.20;99.90;;;;;;5020836;28;20064;-54
2022/10/12 05:35:29;;;;;;;10.77;6.18;;;7.20;99.90;;;;;;5020983;28;20094;-54
2022/10/12 05:38:15;;;;;;;13.98;6.57;;;7.20;99.90;;;;;;5029138;28;20033;-56
2022/10/12 05:41:01;;;;;;;17.33;7.03;;;7.30;99.90;;;;;;5012697;28;20026;-55
2022/10/12 05:43:47;;;;;;;18.17;8.05;;;7.20;99.90;;;;;;5015667;28;20030;-54
2022/10/12 05:46:33;;;;;;;17.05;6.90;;;7.20;99.90;;;;;;5035369;28;20061;-57
2022/10/12 05:49:19;;;;;;;14.63;7.30;;;7.20;99.90;;;;;;5033049;28;20064;-51
2022/10/12 05:52:05;;;;;;;27.13;7.90;;;7.20;99.90;;;;;;5014436;28;20589;-54
2022/10/12 05:54:51;;;;;;;14.45;6.30;;;7.20;99.90;;;;;;5018437;28;20029;-57
2022/10/12 05:57:37;;;;;;;10.73;6.72;;;7.20;99.90;;;;;;5019919;28;20025;-55
2022/10/12 06:00:23;;;;;;;10.75;6.50;;;7.20;99.90;;;;;;4999943;28;20076;-56
2022/10/12 06:03:09;;;;;;;10.75;6.60;;;7.10;99.90;;;;;;4997069;28;20038;-52
2022/10/12 06:05:55;;;;;;;10.93;6.55;;;7.10;99.90;;;;;;4979048;28;20038;-51
2022/10/12 06:08:41;;;;;;;9.10;5.95;;;7.10;99.90;;;;;;4999356;28;20028;-52
2022/10/12 06:11:27;;;;;;;16.73;8.75;;;7.10;99.90;;;;;;5032912;28;20669;-54
2022/10/12 06:14:13;;;;;;;24.20;12.38;;;7.10;99.90;;;;;;5013696;28;20482;-53
2022/10/12 06:16:59;;;;;;;11.95;7.43;;;7.10;99.90;;;;;;5010008;28;20497;-52
2022/10/12 06:19:45;;;;;;;10.68;6.78;;;7.10;99.90;;;;;;4994472;28;20042;-54
2022/10/12 06:22:31;;;;;;;11.15;6.85;;;7.20;99.90;;;;;;4998925;28;20045;-54
2022/10/12 06:25:17;;;;;;;9.13;6.22;;;7.20;99.90;;;;;;5028124;28;20045;-52
2022/10/12 06:28:13;;;;;;;10.43;6.95;;;7.20;99.90;;;;;;5025547;28;20026;-57
2022/10/12 06:31:00;;;;;;;12.82;7.50;;;7.20;99.90;;;;;;5003496;28;20019;-52
2022/10/12 06:33:46;;;;;;;38.65;10.07;;;7.20;99.90;;;;;;4994282;28;20026;-56
2022/10/12 06:36:32;;;;;;;17.48;8.35;;;7.30;99.90;;;;;;5017664;28;20030;-51
2022/10/12 06:39:18;;;;;;;14.02;8.27;;;7.30;99.90;;;;;;5008747;28;20026;-54
2022/10/12 06:42:04;;;;;;;14.38;8.35;;;7.40;99.90;;;;;;5019307;28;20510;-56
2022/10/12 06:44:50;;;;;;;11.70;7.55;;;7.40;99.90;;;;;;5014054;28;20654;-52
2022/10/12 06:47:41;;;;;;;10.88;7.20;;;7.40;99.90;;;;;;5005437;28;20583;-56
2022/10/12 06:50:27;;;;;;;16.15;7.28;;;7.50;99.90;;;;;;5014744;28;20026;-52
2022/10/12 06:53:13;;;;;;;15.35;7.43;;;7.50;99.90;;;;;;5036812;28;20026;-51
2022/10/12 06:56:08;;;;;;;15.98;7.90;;;7.60;99.90;;;;;;5015297;28;20026;-55
2022/10/12 06:58:55;;;;;;;13.25;7.68;;;7.70;99.90;;;;;;5011914;28;20085;-53
2022/10/12 07:01:41;;;;;;;17.17;7.30;;;7.70;99.90;;;;;;5021293;28;20058;-54
2022/10/12 07:04:27;;;;;;;15.13;8.23;;;7.70;99.90;;;;;;5012792;28;20033;-51
2022/10/12 07:07:13;;;;;;;19.20;8.63;;;7.80;99.90;;;;;;5012483;28;20506;-54
2022/10/12 07:09:59;;;;;;;25.73;8.55;;;7.80;99.90;;;;;;4998868;28;20393;-56
2022/10/12 07:12:45;;;;;;;17.80;8.02;;;7.90;99.90;;;;;;5016975;28;20017;-55
2022/10/12 07:15:31;;;;;;;27.15;9.25;;;8.00;99.90;;;;;;5007975;28;20129;-56
2022/10/12 07:18:17;;;;;;;23.92;8.88;;;8.10;99.90;;;;;;4997676;28;20030;-53
2022/10/12 07:21:03;;;;;;;15.45;8.65;;;8.20;99.90;;;;;;5001744;28;20080;-55
2022/10/12 07:23:49;;;;;;;14.50;8.52;;;8.30;99.90;;;;;;5011624;28;20186;-55
2022/10/12 07:26:35;;;;;;;16.67;8.52;;;8.30;99.90;;;;;;5012010;28;20026;-51
2022/10/12 07:29:20;;;;;;;13.20;7.05;;;8.40;99.90;;;;;;5012976;28;20025;-54
2022/10/12 07:32:07;;;;;;;16.15;7.85;;;8.50;99.90;;;;;;5028393;28;20038;-54
2022/10/12 07:34:53;;;;;;;18.98;8.77;;;8.50;99.90;;;;;;5026294;28;20118;-55
2022/10/12 07:37:39;;;;;;;18.15;8.10;;;8.60;99.90;;;;;;5013706;28;20130;-57
2022/10/12 07:40:25;;;;;;;28.02;8.73;;;8.70;99.90;;;;;;5022126;28;20032;-53
2022/10/12 07:43:11;;;;;;;21.77;9.45;;;8.80;99.90;;;;;;5017275;28;20029;-54
2022/10/12 07:45:57;;;;;;;25.40;15.00;;;8.90;99.90;;;;;;5017501;28;20026;-56
2022/10/12 07:48:43;;;;;;;19.63;12.75;;;9.00;99.90;;;;;;5010140;28;20401;-51
2022/10/12 07:51:29;;;;;;;22.17;9.88;;;9.10;99.90;;;;;;5015330;28;20083;-56
2022/10/12 07:54:15;;;;;;;19.35;9.80;;;9.10;99.90;;;;;;4992899;28;20497;-55
2022/10/12 07:57:01;;;;;;;20.35;10.10;;;9.20;99.90;;;;;;5010751;28;20481;-51
2022/10/12 07:59:47;;;;;;;18.60;10.18;;;9.30;99.90;;;;;;5014823;28;20037;-53
2022/10/12 08:02:34;;;;;;;16.77;10.13;;;9.40;99.90;;;;;;5005920;28;20062;-54
2022/10/12 08:05:21;;;;;;;22.92;12.18;;;9.50;99.90;;;;;;5011078;28;20026;-52
2022/10/12 08:08:07;;;;;;;25.83;13.20;;;9.60;99.90;;;;;;5012044;28;20060;-54
2022/10/12 08:10:54;;;;;;;19.30;11.27;;;9.60;99.90;;;;;;5013797;28;20028;-54
2022/10/12 08:13:41;;;;;;;26.67;12.35;;;9.70;99.90;;;;;;5025828;28;20088;-51
2022/10/12 08:16:27;;;;;;;18.60;12.60;;;9.80;99.90;;;;;;5016774;28;20069;-50
2022/10/12 08:19:13;;;;;;;33.88;17.55;;;9.90;99.90;;;;;;5009942;28;20124;-53
2022/10/12 08:21:59;;;;;;;33.28;16.98;;;10.00;99.90;;;;;;5009934;28;20251;-53
2022/10/12 08:24:45;;;;;;;26.70;13.40;;;10.00;99.90;;;;;;5033737;28;20025;-55
2022/10/12 08:27:31;;;;;;;24.00;12.30;;;10.20;99.90;;;;;;5033534;28;20623;-55
2022/10/12 08:30:17;;;;;;;17.15;11.15;;;10.20;99.90;;;;;;5019606;28;20077;-54
2022/10/12 08:33:03;;;;;;;17.92;11.13;;;10.40;99.90;;;;;;5011855;28;20030;-57
2022/10/12 08:35:49;;;;;;;22.77;12.63;;;10.50;99.90;;;;;;4995803;28;20029;-54
2022/10/12 08:38:37;;;;;;;22.67;13.02;;;10.60;99.90;;;;;;5009398;28;20033;-54
2022/10/12 08:41:46;;;;;;;26.65;13.98;;;10.60;99.90;;;;;;5010213;28;20039;-51
2022/10/12 08:44:48;;;;;;;19.73;11.52;;;10.80;99.90;;;;;;5009720;28;20065;-53
2022/10/12 08:47:52;;;;;;;18.60;11.07;;;10.90;99.90;;;;;;5008387;28;20097;-55
2022/10/12 08:50:48;;;;;;;19.65;11.68;;;11.10;99.90;;;;;;5007589;28;20133;-57
2022/10/12 08:53:39;;;;;;;24.70;13.57;;;11.20;99.60;;;;;;5006705;28;20053;-52
2022/10/12 08:56:25;;;;;;;24.85;11.55;;;11.30;99.40;;;;;;5008235;28;20029;-52
2022/10/12 08:59:13;;;;;;;20.30;10.18;;;11.40;99.20;;;;;;5009236;28;20463;-51
2022/10/12 09:02:17;;;;;;;23.00;9.77;;;11.40;99.30;;;;;;5008414;28;20048;-52
2022/10/12 09:05:08;;;;;;;26.40;13.50;;;11.50;99.20;;;;;;5010875;28;20317;-52
2022/10/12 09:08:05;;;;;;;36.90;17.33;;;11.60;98.90;;;;;;5008059;28;20374;-51
2022/10/12 09:11:25;;;;;;;31.10;11.88;;;11.80;98.70;;;;;;5010968;28;20036;-52
2022/10/12 09:14:19;;;;;;;19.35;10.18;;;11.80;98.60;;;;;;5010862;28;20565;-49
2022/10/12 09:17:27;;;;;;;19.10;10.38;;;12.00;98.40;;;;;;5007253;28;20026;-53
2022/10/12 09:20:30;;;;;;;22.52;10.95;;;12.10;98.30;;;;;;5004810;28;20471;-49
2022/10/12 09:23:24;;;;;;;17.88;10.20;;;12.10;98.40;;;;;;5013840;28;20044;-52
2022/10/12 09:26:14;;;;;;;15.75;9.68;;;12.20;98.20;;;;;;5020093;28;20034;-51
2022/10/12 09:29:02;;;;;;;20.45;9.40;;;12.20;98.20;;;;;;5027964;28;20025;-53
2022/10/12 09:31:51;;;;;;;17.35;9.30;;;12.40;97.90;;;;;;5001410;28;20026;-52
2022/10/12 09:34:37;;;;;;;19.95;10.00;;;12.50;97.60;;;;;;5014716;28;20096;-49
2022/10/12 09:37:27;;;;;;;26.67;11.68;;;12.70;97.50;;;;;;5025692;28;20033;-52
2022/10/12 09:40:22;;;;;;;15.80;8.90;;;12.70;97.40;;;;;;4999694;28;20034;-50
2022/10/12 09:43:09;;;;;;;26.73;10.18;;;12.70;97.20;;;;;;4997441;28;20037;-55
2022/10/12 09:45:58;;;;;;;14.10;8.38;;;12.70;97.60;;;;;;5001014;28;20090;-53
2022/10/12 09:49:00;;;;;;;16.70;8.70;;;12.70;97.10;;;;;;4988728;28;20044;-49
2022/10/12 09:51:46;;;;;;;12.85;8.63;;;12.90;97.00;;;;;;5006368;28;20049;-48
2022/10/12 09:54:33;;;;;;;21.33;8.98;;;13.10;96.70;;;;;;5013766;28;20093;-49
2022/10/12 09:57:33;;;;;;;14.02;8.18;;;13.10;96.50;;;;;;5013075;28;20033;-49
2022/10/12 10:00:29;;;;;;;13.10;8.20;;;13.10;96.70;;;;;;5026558;28;20397;-52
2022/10/12 10:03:24;;;;;;;14.25;8.02;;;13.30;96.30;;;;;;5026992;28;20038;-53
2022/10/12 10:06:10;;;;;;;9.00;6.75;;;13.40;96.20;;;;;;4995650;28;20045;-54
2022/10/12 10:08:57;;;;;;;11.57;7.20;;;13.40;96.40;;;;;;4996986;28;20566;-50
2022/10/12 10:11:43;;;;;;;16.75;8.07;;;13.50;96.00;;;;;;5018699;28;20082;-52
2022/10/12 10:14:29;;;;;;;18.25;7.88;;;13.50;95.80;;;;;;5028629;28;20075;-51
2022/10/12 10:17:27;;;;;;;13.52;6.72;;;13.70;95.60;;;;;;5025394;28;20110;-51
2022/10/12 10:20:30;;;;;;;14.20;7.35;;;13.80;95.50;;;;;;4989595;28;20034;-56
2022/10/12 10:23:28;;;;;;;10.52;6.47;;;13.90;95.30;;;;;;5024163;28;20406;-51
2022/10/12 10:26:16;;;;;;;12.35;6.72;;;13.90;95.40;;;;;;5036035;28;20028;-48
2022/10/12 10:29:31;;;;;;;11.27;6.00;;;14.00;94.90;;;;;;5013683;28;20034;-53
2022/10/12 10:32:28;;;;;;;14.65;7.55;;;14.20;94.70;;;;;;5026831;28;20032;-54
2022/10/12 10:35:20;;;;;;;10.75;5.80;;;14.20;94.40;;;;;;5029561;28;20048;-53
2022/10/12 10:38:14;;;;;;;16.88;8.10;;;14.40;94.20;;;;;;5018666;28;22141;-47
2022/10/12 10:41:05;;;;;;;15.07;5.60;;;14.40;94.10;;;;;;5004363;28;20573;-53
2022/10/12 10:43:51;;;;;;;11.73;6.43;;;14.50;93.90;;;;;;5013295;28;20036;-54
2022/10/12 10:46:37;;;;;;;11.25;5.65;;;14.60;93.60;;;;;;5012975;28;20520;-49
2022/10/12 10:49:35;;;;;;;14.15;5.65;;;14.60;93.60;;;;;;5013638;28;20014;-51
2022/10/12 10:52:33;;;;;;;13.73;5.30;;;14.70;93.30;;;;;;5012149;28;20022;-51
2022/10/12 10:55:27;;;;;;;16.13;5.70;;;14.80;93.20;;;;;;4993285;28;20034;-53
2022/10/12 10:58:40;;;;;;;12.40;5.82;;;14.80;92.80;;;;;;4997451;28;20029;-50
2022/10/12 11:01:37;;;;;;;9.90;4.97;;;14.70;92.30;;;;;;5012826;28;20029;-52
2022/10/12 11:04:28;;;;;;;9.93;4.60;;;14.80;92.40;;;;;;5006675;28;20541;-53
2022/10/12 11:07:36;;;;;;;10.20;5.70;;;14.90;92.40;;;;;;4993209;28;20037;-47
2022/10/12 11:10:34;;;;;;;11.07;4.95;;;14.90;92.50;;;;;;4992166;28;20026;-54
2022/10/12 11:13:33;;;;;;;13.25;5.43;;;14.90;92.40;;;;;;4992600;28;20029;-55
2022/10/12 11:16:31;;;;;;;11.55;5.05;;;15.10;92.20;;;;;;5007882;28;20033;-49
2022/10/12 11:19:28;;;;;;;11.10;5.28;;;15.10;92.20;;;;;;5030466;28;20029;-53
2022/10/12 11:22:19;;;;;;;12.93;5.85;;;15.20;92.30;;;;;;5017834;28;20414;-55
2022/10/12 11:25:22;;;;;;;12.70;5.82;;;15.30;91.80;;;;;;5011585;28;20022;-52
2022/10/12 11:28:15;;;;;;;13.98;5.80;;;15.40;91.60;;;;;;4992535;28;20030;-47
2022/10/12 11:31:01;;;;;;;12.68;5.88;;;15.50;91.50;;;;;;5006784;28;20030;-56
2022/10/12 11:33:48;;;;;;;9.65;5.35;;;15.50;91.50;;;;;;5031810;28;20111;-51
2022/10/12 11:36:41;;;;;;;12.00;5.32;;;15.50;91.30;;;;;;5015891;28;20030;-52
2022/10/12 11:39:43;;;;;;;24.42;6.63;;;15.50;91.30;;;;;;4985337;28;20524;-54
2022/10/12 11:42:35;;;;;;;11.15;5.50;;;15.50;91.20;;;;;;5010938;28;20088;-55
2022/10/12 11:45:30;;;;;;;12.30;6.30;;;15.50;91.50;;;;;;4997261;28;20776;-54
2022/10/12 11:48:21;;;;;;;9.30;5.57;;;15.60;91.20;;;;;;5011222;28;20018;-53
2022/10/12 11:51:11;;;;;;;16.90;6.43;;;15.70;91.20;;;;;;4992274;28;20035;-58
2022/10/12 11:54:06;;;;;;;15.35;6.10;;;15.70;91.00;;;;;;4996104;28;20572;-48
2022/10/12 11:56:56;;;;;;;12.52;5.82;;;15.70;91.00;;;;;;5031134;28;20029;-53
2022/10/12 11:59:52;;;;;;;12.18;5.47;;;15.70;90.90;;;;;;5029752;28;20092;-58
2022/10/12 12:02:43;;;;;;;10.35;5.25;;;15.70;90.90;;;;;;5031145;28;20072;-51
2022/10/12 12:05:30;;;;;;;9.27;4.97;;;15.60;90.90;;;;;;5014132;28;20516;-53
2022/10/12 12:08:41;;;;;;;12.43;5.55;;;15.60;91.00;;;;;;5012035;28;20038;-53
2022/10/12 12:11:30;;;;;;;11.15;5.20;;;15.70;90.80;;;;;;4981033;28;20034;-53
2022/10/12 12:14:25;;;;;;;12.98;6.43;;;15.80;90.70;;;;;;5001080;28;20040;-52
2022/10/12 12:17:23;;;;;;;19.25;7.32;;;15.90;90.50;;;;;;5030730;28;20017;-54
2022/10/12 12:20:54;;;;;;;16.23;7.18;;;16.00;90.30;;;;;;5015394;28;20030;-49
2022/10/12 12:23:49;;;;;;;14.90;6.97;;;16.10;90.50;;;;;;5011765;28;20037;-54
2022/10/12 12:26:35;;;;;;;16.05;6.80;;;16.20;90.00;;;;;;5009709;28;20022;-59
2022/10/12 12:29:26;;;;;;;15.82;6.70;;;16.40;90.00;;;;;;5030749;28;20025;-55
2022/10/12 12:32:12;;;;;;;11.05;6.05;;;16.50;90.10;;;;;;5003487;28;20030;-55
2022/10/12 12:34:58;;;;;;;12.13;5.00;;;16.60;89.90;;;;;;5026002;28;20520;-56
2022/10/12 12:37:45;;;;;;;13.82;5.80;;;16.70;89.80;;;;;;5023860;28;20038;-52
2022/10/12 12:40:32;;;;;;;12.20;5.40;;;16.90;89.00;;;;;;5029966;28;20022;-55
2022/10/12 12:43:29;;;;;;;11.48;5.80;;;17.00;88.50;;;;;;5015227;28;20058;-53
2022/10/12 12:46:16;;;;;;;17.15;6.15;;;17.10;87.30;;;;;;5007185;28;20096;-53
2022/10/12 12:49:02;;;;;;;15.13;5.80;;;17.20;87.20;;;;;;5025107;28;20044;-53
2022/10/12 12:51:53;;;;;;;12.70;6.05;;;17.20;87.20;;;;;;5010199;28;20490;-58
2022/10/12 12:55:02;;;;;;;9.88;5.80;;;17.30;87.20;;;;;;4991188;28;20105;-54
2022/10/12 12:58:27;;;;;;;19.92;6.53;;;17.50;86.70;;;;;;5004788;28;20021;-60
2022/10/12 13:01:44;;;;;;;14.68;5.93;;;17.60;86.50;;;;;;5032286;28;20037;-57
2022/10/12 13:04:55;;;;;;;31.25;21.15;;;17.60;86.00;;;;;;5015541;28;20026;-54
2022/10/12 13:07:51;;;;;;;17.85;10.02;;;17.80;86.10;;;;;;5016537;28;20048;-55
2022/10/12 13:10:49;;;;;;;11.07;8.70;;;18.00;85.70;;;;;;5020045;28;20105;-56
2022/10/12 13:13:53;;;;;;;12.80;6.80;;;18.30;85.20;;;;;;5032949;28;20175;-56
2022/10/12 13:16:57;;;;;;;19.33;10.93;;;18.50;84.50;;;;;;5033333;28;20501;-54
2022/10/12 13:19:44;;;;;;;10.32;6.25;;;18.40;84.20;;;;;;5014754;28;20037;-55
2022/10/12 13:22:33;;;;;;;8.20;5.75;;;18.30;85.00;;;;;;5030356;28;20065;-56
2022/10/12 13:25:31;;;;;;;9.05;5.38;;;18.30;85.20;;;;;;5032559;28;20479;-56
2022/10/12 13:28:24;;;;;;;12.73;6.07;;;18.50;85.20;;;;;;5020170;28;20033;-54
2022/10/12 13:31:20;;;;;;;16.40;6.40;;;18.80;84.90;;;;;;5008536;28;20692;-55
2022/10/12 13:34:14;;;;;;;10.07;6.32;;;18.90;83.30;;;;;;5012199;28;20433;-56
2022/10/12 13:37:02;;;;;;;13.27;5.85;;;18.70;83.60;;;;;;5013814;28;20017;-58
2022/10/12 13:39:49;;;;;;;14.32;6.60;;;18.80;83.20;;;;;;5018493;28;20121;-56
2022/10/12 13:42:35;;;;;;;14.40;8.77;;;18.80;83.60;;;;;;5013799;28;20082;-56
2022/10/12 13:45:21;;;;;;;9.98;5.65;;;19.00;83.90;;;;;;5013079;28;20076;-54
2022/10/12 13:48:17;;;;;;;10.95;5.35;;;19.20;83.50;;;;;;5012330;28;20773;-56
2022/10/12 13:51:23;;;;;;;12.88;6.20;;;19.60;82.70;;;;;;4993975;28;20034;-56
2022/10/12 13:54:40;;;;;;;14.43;5.97;;;19.50;82.00;;;;;;5032885;28;20092;-54
2022/10/12 13:57:30;;;;;;;14.73;7.40;;;19.20;82.70;;;;;;5016161;28;20034;-57
2022/10/12 14:00:21;;;;;;;10.68;5.90;;;19.50;83.30;;;;;;5012158;28;20030;-58
2022/10/12 14:03:07;;;;;;;13.35;5.93;;;19.80;82.70;;;;;;5011496;28;20051;-61
2022/10/12 14:05:53;;;;;;;11.45;6.47;;;20.10;81.90;;;;;;5017610;28;20096;-59
2022/10/12 14:08:39;;;;;;;11.15;5.65;;;20.20;81.20;;;;;;5030796;28;20032;-60
2022/10/12 14:11:26;;;;;;;10.35;5.47;;;20.40;81.10;;;;;;5018346;28;20064;-59
2022/10/12 14:14:29;;;;;;;12.88;6.20;;;20.70;81.00;;;;;;5013979;28;20030;-59
2022/10/12 14:17:17;;;;;;;12.63;7.00;;;20.90;80.00;;;;;;4998474;28;20030;-55
2022/10/12 14:20:17;;;;;;;24.65;13.55;;;21.20;79.20;;;;;;5013231;28;20044;-58
2022/10/12 14:23:16;;;;;;;11.27;6.18;;;21.50;78.70;;;;;;5013026;28;20022;-57
2022/10/12 14:26:02;;;;;;;14.15;6.32;;;21.40;78.00;;;;;;5002644;28;20036;-56
2022/10/12 14:28:48;;;;;;;16.15;6.90;;;21.60;78.00;;;;;;5001166;28;20023;-57
2022/10/12 14:31:52;;;;;;;8.52;5.18;;;21.60;77.60;;;;;;5014667;28;20026;-54
2022/10/12 14:34:47;;;;;;;11.27;5.77;;;21.80;77.20;;;;;;5014291;28;20022;-54
2022/10/12 14:37:33;;;;;;;16.52;6.07;;;21.80;76.10;;;;;;4999688;28;20253;-53
2022/10/12 14:40:40;;;;;;;13.02;6.05;;;22.10;76.40;;;;;;5013114;28;20116;-54
2022/10/12 14:43:26;;;;;;;10.82;5.82;;;22.60;76.00;;;;;;4999973;28;20502;-56